createdAt,value
2023-04-06T00:00:38.834Z,11.8
2023-04-06T00:05:38.817Z,13.1
2023-04-06T00:10:38.808Z,12.2
2023-04-06T00:15:38.809Z,13.8
2023-04-06T00:20:38.805Z,14.6
2023-04-06T00:25:38.814Z,16.7
2023-04-06T00:30:38.816Z,12.6
2023-04-06T00:35:38.831Z,14.5
2023-04-06T00:40:38.807Z,15.8
2023-04-06T00:45:38.836Z,17.9
2023-04-06T00:50:38.819Z,14.4
2023-04-06T00:55:38.814Z,13.8
2023-04-06T01:00:38.831Z,13.2
2023-04-06T01:05:38.972Z,15.6
2023-04-06T01:10:38.827Z,17.2
2023-04-06T01:15:38.897Z,16.2
2023-04-06T01:20:38.844Z,14.7
2023-04-06T01:25:38.826Z,16.8
2023-04-06T01:30:38.833Z,18.1
2023-04-06T01:35:38.851Z,16.7
2023-04-06T01:40:38.830Z,15.0
2023-04-06T01:45:38.837Z,17.1
2023-04-06T01:50:38.842Z,19.1
2023-04-06T01:55:38.832Z,17.0
2023-04-06T02:00:38.879Z,17.7
2023-04-06T02:05:38.894Z,17.1
2023-04-06T02:10:38.838Z,16.8
2023-04-06T02:15:38.861Z,14.9
2023-04-06T02:20:38.836Z,18.3
2023-04-06T02:25:38.854Z,15.5
2023-04-06T02:30:38.839Z,15.5
2023-04-06T02:35:38.880Z,16.8
2023-04-06T02:40:38.845Z,16.1
2023-04-06T02:45:38.883Z,17.1
2023-04-06T02:50:38.849Z,15.8
2023-04-06T02:55:38.849Z,14.5
2023-04-06T03:00:38.855Z,17.6
2023-04-06T03:05:38.847Z,18.8
2023-04-06T03:10:38.850Z,16.5
2023-04-06T03:15:38.882Z,15.9
2023-04-06T03:20:38.867Z,16.5
2023-04-06T03:25:38.851Z,15.9
2023-04-06T03:30:38.868Z,16.1
2023-04-06T03:35:38.885Z,15.7
2023-04-06T03:40:38.866Z,16.6
2023-04-06T03:45:38.861Z,15.3
2023-04-06T03:50:38.860Z,18.0
2023-04-06T03:55:38.863Z,17.7
2023-04-06T04:00:38.851Z,19.5
2023-04-06T04:05:38.892Z,15.7
2023-04-06T04:10:38.874Z,19.4
2023-04-06T04:15:38.862Z,19.4
2023-04-06T04:20:38.904Z,18.0
2023-04-06T04:25:38.876Z,15.5
2023-04-06T04:30:38.870Z,17.4
2023-04-06T04:35:38.916Z,18.1
2023-04-06T04:40:38.896Z,19.7
2023-04-06T04:45:38.885Z,21.6
2023-04-06T04:50:38.885Z,16.7
2023-04-06T04:55:38.890Z,20.1
2023-04-06T05:00:38.904Z,21.8
2023-04-06T05:05:38.895Z,18.8
2023-04-06T05:10:38.898Z,22.0
2023-04-06T05:15:39.010Z,19.0
2023-04-06T05:20:38.906Z,21.6
2023-04-06T05:25:38.903Z,20.8
2023-04-06T05:30:38.915Z,24.0
2023-04-06T05:35:38.941Z,21.3
2023-04-06T05:40:38.905Z,21.1
2023-04-06T05:45:38.905Z,21.0
2023-04-06T05:50:38.900Z,22.5
2023-04-06T05:55:38.918Z,23.1
2023-04-06T06:00:38.936Z,24.5
2023-04-06T06:05:38.899Z,24.4
2023-04-06T06:10:38.905Z,24.8
2023-04-06T06:15:38.914Z,24.1
2023-04-06T06:20:38.909Z,25.5
2023-04-06T06:25:38.905Z,22.8
2023-04-06T06:30:38.917Z,24.7
2023-04-06T06:35:38.996Z,20.2
2023-04-06T06:40:39.246Z,19.6
2023-04-06T06:45:38.945Z,20.9
2023-04-06T06:50:38.942Z,20.3
2023-04-06T06:55:38.942Z,21.3
2023-04-06T07:00:38.930Z,19.5
2023-04-06T07:05:41.384Z,18.8
2023-04-06T07:10:38.955Z,21.2
2023-04-06T07:15:39.001Z,19.6
2023-04-06T07:20:38.946Z,21.5
2023-04-06T07:25:38.950Z,18.1
2023-04-06T07:30:38.948Z,19.9
2023-04-06T07:35:39.157Z,19.3
2023-04-06T07:40:38.964Z,17.8
2023-04-06T07:45:38.995Z,19.3
2023-04-06T07:50:38.956Z,18.8
2023-04-06T07:55:38.955Z,19.4
2023-04-06T08:00:38.958Z,18.8
2023-04-06T08:05:38.961Z,21.0
2023-04-06T08:10:38.968Z,19.9
2023-04-06T08:15:39.005Z,16.5
2023-04-06T08:20:38.968Z,19.9
2023-04-06T08:25:38.868Z,16.2
2023-04-06T08:30:38.867Z,18.1
2023-04-06T08:35:38.893Z,18.7
2023-04-06T08:40:38.884Z,18.5
2023-04-06T08:45:38.876Z,19.4
2023-04-06T08:50:38.876Z,19.6
2023-04-06T08:55:38.870Z,19.9
2023-04-06T09:00:38.890Z,19.4
2023-04-06T09:05:38.890Z,24.4
2023-04-06T09:10:38.889Z,22.1
2023-04-06T09:15:38.889Z,18.4
2023-04-06T09:20:38.928Z,20.0
2023-04-06T09:25:38.905Z,19.3
2023-04-06T09:30:38.897Z,17.5
2023-04-06T09:35:38.928Z,19.8
2023-04-06T09:40:45.601Z,19.2
2023-04-06T09:45:38.906Z,21.4
2023-04-06T09:50:38.909Z,21.0
2023-04-06T09:55:38.898Z,19.6
2023-04-06T10:00:38.959Z,19.0
2023-04-06T10:05:38.917Z,18.3
2023-04-06T10:10:38.948Z,17.5
2023-04-06T10:15:38.923Z,17.6
2023-04-06T10:20:38.930Z,20.2
2023-04-06T10:25:38.956Z,17.0
2023-04-06T10:30:38.928Z,18.3
2023-04-06T10:35:38.972Z,18.1
2023-04-06T10:40:38.943Z,20.9
2023-04-06T10:45:38.967Z,19.7
2023-04-06T10:50:38.936Z,16.0
2023-04-06T10:55:38.936Z,17.9
2023-04-06T11:00:49.606Z,19.1
2023-04-06T11:05:38.942Z,15.2
2023-04-06T11:10:38.941Z,13.3
2023-04-06T11:20:38.940Z,13.0
2023-04-06T11:25:39.282Z,13.3
2023-04-06T11:30:38.978Z,10.6
2023-04-06T11:35:39.014Z,8.3
2023-04-06T11:40:38.952Z,8.3
2023-04-06T11:45:38.943Z,6.1
2023-04-06T11:50:38.952Z,6.7
2023-04-06T11:55:38.951Z,6.8
2023-04-06T12:00:38.951Z,7.4
2023-04-06T12:05:38.956Z,6.5
2023-04-06T12:10:38.996Z,9.3
2023-04-06T12:15:38.985Z,6.5
2023-04-06T12:20:38.965Z,8.0
2023-04-06T12:25:38.963Z,7.6
2023-04-06T12:30:38.957Z,6.6
2023-04-06T12:35:38.961Z,5.6
2023-04-06T12:40:38.970Z,6.7
2023-04-06T12:45:38.961Z,8.0
2023-04-06T12:50:38.970Z,7.1
2023-04-06T12:55:38.977Z,7.7
2023-04-06T13:00:39.093Z,9.7
2023-04-06T13:05:38.973Z,8.5
2023-04-06T13:10:38.972Z,9.2
2023-04-06T13:15:38.970Z,9.4
2023-04-06T13:20:38.972Z,9.6
2023-04-06T13:25:38.987Z,10.6
2023-04-06T13:30:38.984Z,14.7
2023-04-06T13:35:38.983Z,10.2
2023-04-06T13:40:38.983Z,10.6
2023-04-06T13:45:39.027Z,10.1
2023-04-06T13:50:39.002Z,10.6
2023-04-06T13:55:38.993Z,10.4
2023-04-06T14:00:39.066Z,10.0
2023-04-06T14:05:39.005Z,8.6
2023-04-06T14:10:38.990Z,8.8
2023-04-06T14:15:39.013Z,8.9
2023-04-06T14:20:38.999Z,7.9
2023-04-06T14:25:38.998Z,10.0
2023-04-06T14:30:39.045Z,8.8
2023-04-06T14:35:38.998Z,9.3
2023-04-06T14:40:39.006Z,8.1
2023-04-06T14:45:39.154Z,10.2
2023-04-06T14:50:39.006Z,9.2
2023-04-06T14:55:39.006Z,10.5
2023-04-06T15:00:39.008Z,9.3
2023-04-06T15:10:39.021Z,11.5
2023-04-06T15:15:39.108Z,11.0
2023-04-06T15:20:39.019Z,10.1
2023-04-06T15:25:39.011Z,11.6
2023-04-06T15:30:39.018Z,12.4
2023-04-06T15:35:39.065Z,14.8
2023-04-06T15:40:39.018Z,13.1
2023-04-06T15:45:39.022Z,13.9
2023-04-06T15:50:39.055Z,11.9
2023-04-06T16:00:39.056Z,13.6
2023-04-06T16:05:48.424Z,12.4
2023-04-06T16:10:39.030Z,14.1
2023-04-06T16:15:39.088Z,12.7
2023-04-06T16:20:39.134Z,12.9
2023-04-06T16:25:39.063Z,12.2
2023-04-06T16:30:39.435Z,10.0
2023-04-06T16:35:39.066Z,11.1
2023-04-06T16:40:39.038Z,11.8
2023-04-06T16:45:39.082Z,10.1
2023-04-06T16:50:39.178Z,10.2
2023-04-06T16:55:39.052Z,13.0
2023-04-06T17:05:39.171Z,20.9
2023-04-06T17:15:39.068Z,9.4
2023-04-06T17:20:39.153Z,8.6
2023-04-06T17:25:39.184Z,7.4
2023-04-06T17:30:39.247Z,10.8
2023-04-06T17:35:39.179Z,7.7
2023-04-06T17:45:39.162Z,8.9
2023-04-06T17:50:39.177Z,13.6
2023-04-06T17:55:39.169Z,6.2
2023-04-06T18:00:39.170Z,5.4
2023-04-06T18:05:39.064Z,6.4
2023-04-06T18:15:39.193Z,26.9
2023-04-06T18:20:39.092Z,6.9
2023-04-06T18:25:39.079Z,17.6
2023-04-06T18:30:39.092Z,5.4
2023-04-06T18:40:39.107Z,5.9
2023-04-06T18:45:39.078Z,11.3
2023-04-06T18:50:39.082Z,6.1
2023-04-06T18:55:39.083Z,7.3
2023-04-06T19:00:39.126Z,5.7
2023-04-06T19:05:39.092Z,5.9
2023-04-06T19:10:39.093Z,10.2
2023-04-06T19:15:39.102Z,5.3
2023-04-06T19:20:39.101Z,5.8
2023-04-06T19:25:39.104Z,22.3
2023-04-06T19:30:39.114Z,11.7
2023-04-06T19:35:39.098Z,7.8
2023-04-06T19:40:39.103Z,8.6
2023-04-06T19:45:39.104Z,7.9
2023-04-06T19:50:39.110Z,8.0
2023-04-06T19:55:39.114Z,9.1
2023-04-06T20:00:39.107Z,11.0
2023-04-06T20:05:39.105Z,10.5
2023-04-06T20:10:39.121Z,12.8
2023-04-06T20:15:39.108Z,23.2
2023-04-06T20:20:39.120Z,13.8
2023-04-06T20:25:39.126Z,17.2
2023-04-06T20:30:39.116Z,11.9
2023-04-06T20:35:39.137Z,12.2
2023-04-06T20:40:39.124Z,13.6
2023-04-06T20:45:39.135Z,20.0
2023-04-06T20:50:39.127Z,12.2
2023-04-06T20:55:39.337Z,13.4
2023-04-06T21:00:39.129Z,12.3
2023-04-06T21:05:39.164Z,13.3
2023-04-06T21:10:39.142Z,15.4
2023-04-06T21:15:39.163Z,13.8
2023-04-06T21:20:39.142Z,15.8
2023-04-06T21:25:39.154Z,15.8
2023-04-06T21:30:39.147Z,15.2
2023-04-06T21:35:39.152Z,14.6
2023-04-06T21:40:39.151Z,16.6
2023-04-06T21:45:39.152Z,14.1
2023-04-06T21:50:39.153Z,20.5
2023-04-06T21:55:39.146Z,18.9
2023-04-06T22:00:39.155Z,16.2
2023-04-06T22:05:39.153Z,19.1
2023-04-06T22:10:39.152Z,20.8
2023-04-06T22:15:39.147Z,24.4
2023-04-06T22:20:39.158Z,26.0
2023-04-06T22:25:39.466Z,27.0
2023-04-06T22:30:39.166Z,26.8
2023-04-06T22:35:39.220Z,28.4
2023-04-06T22:40:39.480Z,28.7
2023-04-06T22:45:39.160Z,27.9
2023-04-06T22:50:39.190Z,28.4
2023-04-06T22:55:39.168Z,29.1
2023-04-06T23:00:39.169Z,27.8
2023-04-06T23:10:39.174Z,26.8
2023-04-06T23:15:39.185Z,23.8
2023-04-06T23:20:39.186Z,21.0
2023-04-06T23:25:39.185Z,19.9
2023-04-06T23:30:39.222Z,18.9
2023-04-06T23:35:39.191Z,19.7
2023-04-06T23:40:39.183Z,23.8
2023-04-06T23:45:39.191Z,18.1
2023-04-06T23:50:39.189Z,17.5
2023-04-06T23:55:39.193Z,15.9
